sensor_id;sensor_type;location;lat;lon;timestamp;pressure;altitude;pressure_sealevel;temperature;humidity
12759;BME280;20944;47.048;15.390;2024-02-14T00:00:26;98101.81;;;3.65;100.00
12759;BME280;20944;47.048;15.390;2024-02-14T00:02:55;98079.28;;;3.52;100.00
12759;BME280;20944;47.048;15.390;2024-02-14T00:05:23;98085.31;;;3.53;100.00
12759;BME280;20944;47.048;15.390;2024-02-14T00:07:53;98103.50;;;3.59;100.00
12759;BME280;20944;47.048;15.390;2024-02-14T00:10:21;98102.56;;;3.50;100.00
12759;BME280;20944;47.048;15.390;2024-02-14T00:12:50;98079.91;;;3.27;100.00
12759;BME280;20944;47.048;15.390;2024-02-14T00:15:19;98108.63;;;3.53;100.00
12759;BME280;20944;47.048;15.390;2024-02-14T00:17:47;98107.81;;;3.60;100.00
12759;BME280;20944;47.048;15.390;2024-02-14T00:20:16;98096.50;;;3.48;100.00
12759;BME280;20944;47.048;15.390;2024-02-14T00:22:44;98098.28;;;3.56;100.00
12759;BME280;20944;47.048;15.390;2024-02-14T00:25:14;98060.00;;;3.19;100.00
12759;BME280;20944;47.048;15.390;2024-02-14T00:27:46;98098.13;;;3.37;100.00
12759;BME280;20944;47.048;15.390;2024-02-14T00:30:14;98099.75;;;3.24;100.00
12759;BME280;20944;47.048;15.390;2024-02-14T00:32:43;98105.81;;;3.23;100.00
12759;BME280;20944;47.048;15.390;2024-02-14T00:35:12;98104.19;;;3.35;100.00
12759;BME280;20944;47.048;15.390;2024-02-14T00:37:40;98067.47;;;2.84;100.00
12759;BME280;20944;47.048;15.390;2024-02-14T00:40:09;98109.19;;;3.16;100.00
12759;BME280;20944;47.048;15.390;2024-02-14T00:42:39;98120.44;;;3.20;100.00
12759;BME280;20944;47.048;15.390;2024-02-14T00:45:08;98123.84;;;3.14;100.00
12759;BME280;20944;47.048;15.390;2024-02-14T00:47:37;98129.09;;;3.25;100.00
12759;BME280;20944;47.048;15.390;2024-02-14T00:50:06;98127.25;;;3.12;100.00
12759;BME280;20944;47.048;15.390;2024-02-14T00:52:35;98138.44;;;3.08;100.00
12759;BME280;20944;47.048;15.390;2024-02-14T00:55:04;98138.34;;;2.98;100.00
12759;BME280;20944;47.048;15.390;2024-02-14T00:57:32;98114.00;;;2.83;100.00
12759;BME280;20944;47.048;15.390;2024-02-14T01:00:02;98134.72;;;2.83;100.00
12759;BME280;20944;47.048;15.390;2024-02-14T01:02:33;98136.47;;;2.84;100.00
12759;BME280;20944;47.048;15.390;2024-02-14T01:05:01;98129.59;;;2.84;100.00
12759;BME280;20944;47.048;15.390;2024-02-14T01:07:31;98141.66;;;2.85;100.00
12759;BME280;20944;47.048;15.390;2024-02-14T01:09:59;98132.31;;;2.98;100.00
12759;BME280;20944;47.048;15.390;2024-02-14T01:12:27;98105.38;;;2.82;100.00
12759;BME280;20944;47.048;15.390;2024-02-14T01:14:56;98138.34;;;3.00;100.00
12759;BME280;20944;47.048;15.390;2024-02-14T01:17:26;98133.25;;;3.06;100.00
12759;BME280;20944;47.048;15.390;2024-02-14T01:19:55;98102.84;;;2.84;100.00
12759;BME280;20944;47.048;15.390;2024-02-14T01:22:25;98108.88;;;2.84;100.00
12759;BME280;20944;47.048;15.390;2024-02-14T01:24:53;98143.38;;;2.85;100.00
12759;BME280;20944;47.048;15.390;2024-02-14T01:27:22;98088.72;;;2.54;100.00
12759;BME280;20944;47.048;15.390;2024-02-14T01:29:51;98140.59;;;2.66;100.00
12759;BME280;20944;47.048;15.390;2024-02-14T01:32:21;98135.28;;;2.57;100.00
12759;BME280;20944;47.048;15.390;2024-02-14T01:34:51;98067.59;;;2.19;100.00
12759;BME280;20944;47.048;15.390;2024-02-14T01:37:19;98138.88;;;2.67;100.00
12759;BME280;20944;47.048;15.390;2024-02-14T01:39:48;98142.28;;;2.64;100.00
12759;BME280;20944;47.048;15.390;2024-02-14T01:42:16;98146.56;;;2.64;100.00
12759;BME280;20944;47.048;15.390;2024-02-14T01:44:45;98109.09;;;2.28;100.00
12759;BME280;20944;47.048;15.390;2024-02-14T01:47:13;98115.97;;;2.28;100.00
12759;BME280;20944;47.048;15.390;2024-02-14T01:49:42;98132.47;;;2.37;100.00
12759;BME280;20944;47.048;15.390;2024-02-14T01:52:13;98123.91;;;2.43;100.00
12759;BME280;20944;47.048;15.390;2024-02-14T01:54:42;98142.09;;;2.49;100.00
12759;BME280;20944;47.048;15.390;2024-02-14T01:57:11;98086.63;;;2.23;100.00
12759;BME280;20944;47.048;15.390;2024-02-14T01:59:39;98118.00;;;2.53;100.00
12759;BME280;20944;47.048;15.390;2024-02-14T02:02:08;98129.25;;;2.57;100.00
12759;BME280;20944;47.048;15.390;2024-02-14T02:04:36;98131.75;;;2.51;100.00
12759;BME280;20944;47.048;15.390;2024-02-14T02:07:04;98119.53;;;2.37;100.00
12759;BME280;20944;47.048;15.390;2024-02-14T02:09:34;97991.78;;;1.50;100.00
12759;BME280;20944;47.048;15.390;2024-02-14T02:12:03;98110.66;;;2.19;100.00
12759;BME280;20944;47.048;15.390;2024-02-14T02:14:34;98034.19;;;1.66;100.00
12759;BME280;20944;47.048;15.390;2024-02-14T02:17:03;98086.28;;;1.98;100.00
12759;BME280;20944;47.048;15.390;2024-02-14T02:19:34;98103.63;;;2.07;100.00
12759;BME280;20944;47.048;15.390;2024-02-14T02:22:03;98127.72;;;2.03;100.00
12759;BME280;20944;47.048;15.390;2024-02-14T02:24:34;98139.00;;;2.11;100.00
12759;BME280;20944;47.048;15.390;2024-02-14T02:27:03;98042.72;;;1.62;100.00
12759;BME280;20944;47.048;15.390;2024-02-14T02:29:31;98144.09;;;2.06;100.00
12759;BME280;20944;47.048;15.390;2024-02-14T02:32:00;98144.09;;;2.06;100.00
12759;BME280;20944;47.048;15.390;2024-02-14T02:34:28;98083.19;;;1.63;100.00
12759;BME280;20944;47.048;15.390;2024-02-14T02:36:56;98148.28;;;1.95;100.00
12759;BME280;20944;47.048;15.390;2024-02-14T02:39:24;98134.34;;;1.87;100.00
12759;BME280;20944;47.048;15.390;2024-02-14T02:41:54;98149.16;;;1.96;100.00
12759;BME280;20944;47.048;15.390;2024-02-14T02:44:24;98143.88;;;1.89;100.00
12759;BME280;20944;47.048;15.390;2024-02-14T02:46:53;98155.13;;;1.93;100.00
12759;BME280;20944;47.048;15.390;2024-02-14T02:49:22;98157.81;;;2.01;100.00
12759;BME280;20944;47.048;15.390;2024-02-14T02:51:50;98136.06;;;1.85;100.00
12759;BME280;20944;47.048;15.390;2024-02-14T02:54:19;98162.06;;;1.97;100.00
12759;BME280;20944;47.048;15.390;2024-02-14T02:56:50;98158.75;;;2.07;100.00
12759;BME280;20944;47.048;15.390;2024-02-14T02:59:20;98162.28;;;2.11;100.00
12759;BME280;20944;47.048;15.390;2024-02-14T03:01:48;98117.72;;;1.70;100.00
12759;BME280;20944;47.048;15.390;2024-02-14T03:04:17;98122.06;;;1.71;100.00
12759;BME280;20944;47.048;15.390;2024-02-14T03:06:46;98144.56;;;1.78;100.00
12759;BME280;20944;47.048;15.390;2024-02-14T03:09:14;98157.69;;;1.93;100.00
12759;BME280;20944;47.048;15.390;2024-02-14T03:11:46;98168.03;;;1.93;100.00
12759;BME280;20944;47.048;15.390;2024-02-14T03:14:14;98173.09;;;1.85;100.00
12759;BME280;20944;47.048;15.390;2024-02-14T03:16:44;98162.88;;;1.95;100.00
12759;BME280;20944;47.048;15.390;2024-02-14T03:19:12;98107.28;;;1.62;100.00
12759;BME280;20944;47.048;15.390;2024-02-14T03:21:41;98177.50;;;1.91;100.00
12759;BME280;20944;47.048;15.390;2024-02-14T03:24:11;98160.19;;;1.85;100.00
12759;BME280;20944;47.048;15.390;2024-02-14T03:26:39;98128.81;;;1.61;100.00
12759;BME280;20944;47.048;15.390;2024-02-14T03:29:08;98178.22;;;1.82;100.00
12759;BME280;20944;47.048;15.390;2024-02-14T03:31:37;98178.13;;;1.76;100.00
12759;BME280;20944;47.048;15.390;2024-02-14T03:34:06;98178.16;;;1.79;100.00
12759;BME280;20944;47.048;15.390;2024-02-14T03:36:36;98179.13;;;1.86;100.00
12759;BME280;20944;47.048;15.390;2024-02-14T03:39:05;98187.72;;;1.83;100.00
12759;BME280;20944;47.048;15.390;2024-02-14T03:41:33;98170.44;;;1.81;100.00
12759;BME280;20944;47.048;15.390;2024-02-14T03:44:01;98189.47;;;1.86;100.00
12759;BME280;20944;47.048;15.390;2024-02-14T03:46:30;98168.56;;;1.71;100.00
12759;BME280;20944;47.048;15.390;2024-02-14T03:49:02;98185.06;;;1.79;100.00
12759;BME280;20944;47.048;15.390;2024-02-14T03:51:32;98189.25;;;1.72;100.00
12759;BME280;20944;47.048;15.390;2024-02-14T03:54:00;98150.19;;;1.52;100.00
12759;BME280;20944;47.048;15.390;2024-02-14T03:56:28;98171.97;;;1.70;100.00
12759;BME280;20944;47.048;15.390;2024-02-14T03:58:59;98184.25;;;1.83;100.00
12759;BME280;20944;47.048;15.390;2024-02-14T04:01:28;98180.81;;;1.82;100.00
12759;BME280;20944;47.048;15.390;2024-02-14T04:03:58;98197.31;;;1.92;100.00
12759;BME280;20944;47.048;15.390;2024-02-14T04:06:27;98196.38;;;1.87;100.00
12759;BME280;20944;47.048;15.390;2024-02-14T04:09:00;98202.25;;;1.77;100.00
12759;BME280;20944;47.048;15.390;2024-02-14T04:11:28;98200.59;;;1.82;100.00
12759;BME280;20944;47.048;15.390;2024-02-14T04:13:57;98182.13;;;1.57;100.00
12759;BME280;20944;47.048;15.390;2024-02-14T04:16:25;98199.50;;;1.69;100.00
12759;BME280;20944;47.048;15.390;2024-02-14T04:18:53;98196.97;;;1.71;100.00
12759;BME280;20944;47.048;15.390;2024-02-14T04:21:23;98198.81;;;1.76;100.00
12759;BME280;20944;47.048;15.390;2024-02-14T04:23:52;98197.75;;;1.67;100.00
12759;BME280;20944;47.048;15.390;2024-02-14T04:26:22;98202.94;;;1.68;100.00
12759;BME280;20944;47.048;15.390;2024-02-14T04:28:51;98209.03;;;1.70;100.00
12759;BME280;20944;47.048;15.390;2024-02-14T04:31:19;98161.88;;;1.30;100.00
12759;BME280;20944;47.048;15.390;2024-02-14T04:33:47;98199.28;;;1.55;100.00
12759;BME280;20944;47.048;15.390;2024-02-14T04:36:19;98173.13;;;1.34;100.00
12759;BME280;20944;47.048;15.390;2024-02-14T04:38:50;98275.84;;;1.52;100.00
12759;BME280;20944;47.048;15.390;2024-02-14T04:41:19;98204.22;;;1.40;100.00
12759;BME280;20944;47.048;15.390;2024-02-14T04:43:49;98209.38;;;1.42;100.00
12759;BME280;20944;47.048;15.390;2024-02-14T04:46:17;98197.41;;;1.45;100.00
12759;BME280;20944;47.048;15.390;2024-02-14T04:48:45;98217.22;;;1.45;100.00
12759;BME280;20944;47.048;15.390;2024-02-14T04:51:15;98217.34;;;1.54;100.00
12759;BME280;20944;47.048;15.390;2024-02-14T04:53:43;98218.22;;;1.54;100.00
12759;BME280;20944;47.048;15.390;2024-02-14T04:56:11;98222.50;;;1.52;100.00
12759;BME280;20944;47.048;15.390;2024-02-14T04:58:39;98223.28;;;1.50;100.00
12759;BME280;20944;47.048;15.390;2024-02-14T05:01:09;98233.78;;;1.57;100.00
12759;BME280;20944;47.048;15.390;2024-02-14T05:03:37;98222.44;;;1.51;100.00
12759;BME280;20944;47.048;15.390;2024-02-14T05:06:05;98131.09;;;0.93;100.00
12759;BME280;20944;47.048;15.390;2024-02-14T05:08:33;98129.47;;;0.99;100.00
12759;BME280;20944;47.048;15.390;2024-02-14T05:11:02;98221.66;;;1.53;100.00
12759;BME280;20944;47.048;15.390;2024-02-14T05:13:30;98191.09;;;1.28;100.00
12759;BME280;20944;47.048;15.390;2024-02-14T05:16:02;98229.31;;;1.49;100.00
12759;BME280;20944;47.048;15.390;2024-02-14T05:18:32;98211.81;;;1.32;100.00
12759;BME280;20944;47.048;15.390;2024-02-14T05:21:01;98230.06;;;1.43;100.00
12759;BME280;20944;47.048;15.390;2024-02-14T05:23:29;98234.38;;;1.44;100.00
12759;BME280;20944;47.048;15.390;2024-02-14T05:25:57;98214.44;;;1.34;100.00
12759;BME280;20944;47.048;15.390;2024-02-14T05:28:26;98228.31;;;1.42;100.00
12759;BME280;20944;47.048;15.390;2024-02-14T05:30:55;98211.78;;;1.31;100.00
12759;BME280;20944;47.048;15.390;2024-02-14T05:33:24;98216.91;;;1.29;100.00
12759;BME280;20944;47.048;15.390;2024-02-14T05:35:53;98189.13;;;1.15;100.00
12759;BME280;20944;47.048;15.390;2024-02-14T05:38:22;98207.38;;;1.25;100.00
12759;BME280;20944;47.048;15.390;2024-02-14T05:40:50;98161.28;;;0.97;100.00
12759;BME280;20944;47.048;15.390;2024-02-14T05:43:18;98216.13;;;1.33;100.00
12759;BME280;20944;47.048;15.390;2024-02-14T05:45:47;98184.03;;;1.19;100.00
12759;BME280;20944;47.048;15.390;2024-02-14T05:48:15;98233.56;;;1.45;100.00
12759;BME280;20944;47.048;15.390;2024-02-14T05:50:44;98229.00;;;1.32;100.00
12759;BME280;20944;47.048;15.390;2024-02-14T05:53:13;98214.09;;;1.17;100.00
12759;BME280;20944;47.048;15.390;2024-02-14T05:55:42;98230.53;;;1.21;100.00
12759;BME280;20944;47.048;15.390;2024-02-14T05:58:10;98218.38;;;1.15;100.00
12759;BME280;20944;47.048;15.390;2024-02-14T06:00:38;98229.50;;;1.13;100.00
12759;BME280;20944;47.048;15.390;2024-02-14T06:03:07;98237.22;;;1.13;100.00
12759;BME280;20944;47.048;15.390;2024-02-14T06:05:35;98200.19;;;1.07;100.00
12759;BME280;20944;47.048;15.390;2024-02-14T06:08:04;98226.25;;;1.21;100.00
12759;BME280;20944;47.048;15.390;2024-02-14T06:10:34;98231.41;;;1.23;100.00
12759;BME280;20944;47.048;15.390;2024-02-14T06:13:05;98222.78;;;1.21;100.00
12759;BME280;20944;47.048;15.390;2024-02-14T06:15:34;98235.19;;;1.40;100.00
12759;BME280;20944;47.048;15.390;2024-02-14T06:18:02;98217.84;;;1.33;100.00
12759;BME280;20944;47.048;15.390;2024-02-14T06:20:31;98216.88;;;1.26;100.00
12759;BME280;20944;47.048;15.390;2024-02-14T06:22:59;98237.78;;;1.42;100.00
12759;BME280;20944;47.048;15.390;2024-02-14T06:25:31;98238.72;;;1.45;100.00
12759;BME280;20944;47.048;15.390;2024-02-14T06:28:02;98245.66;;;1.48;100.00
12759;BME280;20944;47.048;15.390;2024-02-14T06:30:30;98233.50;;;1.44;100.00
12759;BME280;20944;47.048;15.390;2024-02-14T06:32:59;98251.69;;;1.48;100.00
12759;BME280;20944;47.048;15.390;2024-02-14T06:35:30;98252.44;;;1.44;100.00
12759;BME280;20944;47.048;15.390;2024-02-14T06:37:59;98244.56;;;1.35;100.00
12759;BME280;20944;47.048;15.390;2024-02-14T06:40:31;98266.31;;;1.48;100.00
12759;BME280;20944;47.048;15.390;2024-02-14T06:42:59;98259.84;;;1.73;100.00
12759;BME280;20944;47.048;15.390;2024-02-14T06:45:29;98266.88;;;1.81;100.00
12759;BME280;20944;47.048;15.390;2024-02-14T06:47:58;98273.84;;;1.85;100.00
12759;BME280;20944;47.048;15.390;2024-02-14T06:50:26;98257.47;;;1.85;100.00
12759;BME280;20944;47.048;15.390;2024-02-14T06:52:56;98281.03;;;2.02;100.00
12759;BME280;20944;47.048;15.390;2024-02-14T06:55:27;98291.31;;;2.00;100.00
12759;BME280;20944;47.048;15.390;2024-02-14T06:57:55;98150.47;;;1.19;100.00
12759;BME280;20944;47.048;15.390;2024-02-14T07:00:24;98246.31;;;1.86;100.00
12759;BME280;20944;47.048;15.390;2024-02-14T07:02:54;98292.47;;;2.17;100.00
12759;BME280;20944;47.048;15.390;2024-02-14T07:05:22;98285.00;;;2.34;100.00
12759;BME280;20944;47.048;15.390;2024-02-14T07:07:50;98280.00;;;2.48;100.00
12759;BME280;20944;47.048;15.390;2024-02-14T07:10:18;98263.75;;;2.57;100.00
12759;BME280;20944;47.048;15.390;2024-02-14T07:12:47;98277.97;;;2.86;100.00
12759;BME280;20944;47.048;15.390;2024-02-14T07:15:15;98275.59;;;3.05;100.00
12759;BME280;20944;47.048;15.390;2024-02-14T07:17:43;98264.53;;;3.15;100.00
12759;BME280;20944;47.048;15.390;2024-02-14T07:20:13;98222.19;;;3.13;100.00
12759;BME280;20944;47.048;15.390;2024-02-14T07:22:44;98280.56;;;3.64;100.00
12759;BME280;20944;47.048;15.390;2024-02-14T07:25:14;98280.81;;;3.84;100.00
12759;BME280;20944;47.048;15.390;2024-02-14T07:27:42;98281.72;;;3.92;100.00
12759;BME280;20944;47.048;15.390;2024-02-14T07:30:13;98298.38;;;4.18;100.00
12759;BME280;20944;47.048;15.390;2024-02-14T07:32:41;98295.88;;;4.33;100.00
12759;BME280;20944;47.048;15.390;2024-02-14T07:35:10;98284.63;;;4.31;100.00
12759;BME280;20944;47.048;15.390;2024-02-14T07:37:41;98295.09;;;4.44;100.00
12759;BME280;20944;47.048;15.390;2024-02-14T07:40:11;98242.13;;;4.10;100.00
12759;BME280;20944;47.048;15.390;2024-02-14T07:42:43;98291.75;;;4.55;100.00
12759;BME280;20944;47.048;15.390;2024-02-14T07:45:12;98299.66;;;4.75;99.97
12759;BME280;20944;47.048;15.390;2024-02-14T07:47:41;98298.03;;;4.93;97.14
12759;BME280;20944;47.048;15.390;2024-02-14T07:50:09;98266.84;;;4.88;95.77
12759;BME280;20944;47.048;15.390;2024-02-14T07:52:42;98162.72;;;4.28;95.06
12759;BME280;20944;47.048;15.390;2024-02-14T07:55:11;98270.31;;;4.96;94.77
12759;BME280;20944;47.048;15.390;2024-02-14T07:57:41;98298.94;;;5.04;93.99
12759;BME280;20944;47.048;15.390;2024-02-14T08:00:11;98305.91;;;5.09;94.19
12759;BME280;20944;47.048;15.390;2024-02-14T08:02:41;98304.19;;;5.10;95.34
12759;BME280;20944;47.048;15.390;2024-02-14T08:05:09;98292.03;;;5.07;94.69
12759;BME280;20944;47.048;15.390;2024-02-14T08:07:38;98308.56;;;5.26;94.41
12759;BME280;20944;47.048;15.390;2024-02-14T08:10:08;98312.91;;;5.33;93.67
12759;BME280;20944;47.048;15.390;2024-02-14T08:12:37;98241.69;;;4.81;92.71
12759;BME280;20944;47.048;15.390;2024-02-14T08:15:05;98275.63;;;5.21;91.36
12759;BME280;20944;47.048;15.390;2024-02-14T08:17:34;98293.00;;;5.29;92.56
12759;BME280;20944;47.048;15.390;2024-02-14T08:20:04;98299.06;;;5.28;93.23
12759;BME280;20944;47.048;15.390;2024-02-14T08:22:33;98267.78;;;5.04;92.75
12759;BME280;20944;47.048;15.390;2024-02-14T08:25:01;98302.53;;;5.29;92.81
12759;BME280;20944;47.048;15.390;2024-02-14T08:27:31;98308.59;;;5.32;91.34
12759;BME280;20944;47.048;15.390;2024-02-14T08:29:59;98299.09;;;5.34;92.45
12759;BME280;20944;47.048;15.390;2024-02-14T08:32:28;98298.19;;;5.34;93.41
12759;BME280;20944;47.048;15.390;2024-02-14T08:34:56;98280.81;;;5.18;93.47
12759;BME280;20944;47.048;15.390;2024-02-14T08:37:25;98300.84;;;5.43;92.56
12759;BME280;20944;47.048;15.390;2024-02-14T08:39:53;98206.16;;;4.66;91.98
12759;BME280;20944;47.048;15.390;2024-02-14T08:42:21;98305.22;;;5.61;92.59
12759;BME280;20944;47.048;15.390;2024-02-14T08:44:51;98294.84;;;5.76;90.89
12759;BME280;20944;47.048;15.390;2024-02-14T08:47:19;98278.44;;;5.85;90.12
12759;BME280;20944;47.048;15.390;2024-02-14T08:49:47;98281.06;;;6.02;88.70
12759;BME280;20944;47.048;15.390;2024-02-14T08:52:16;98265.47;;;6.12;89.86
12759;BME280;20944;47.048;15.390;2024-02-14T08:54:45;98288.88;;;6.31;89.24
12759;BME280;20944;47.048;15.390;2024-02-14T08:57:16;98283.69;;;6.25;88.95
12759;BME280;20944;47.048;15.390;2024-02-14T08:59:46;98292.34;;;6.20;88.80
12759;BME280;20944;47.048;15.390;2024-02-14T09:02:16;98273.25;;;6.15;89.67
12759;BME280;20944;47.048;15.390;2024-02-14T09:04:45;98260.25;;;6.26;90.28
12759;BME280;20944;47.048;15.390;2024-02-14T09:07:13;98283.66;;;6.49;89.07
12759;BME280;20944;47.048;15.390;2024-02-14T09:09:42;98269.78;;;6.56;88.88
12759;BME280;20944;47.048;15.390;2024-02-14T09:12:12;98289.69;;;6.80;86.33
12759;BME280;20944;47.048;15.390;2024-02-14T09:14:41;98281.81;;;7.01;85.58
12759;BME280;20944;47.048;15.390;2024-02-14T09:17:09;98268.72;;;7.21;83.32
12759;BME280;20944;47.048;15.390;2024-02-14T09:19:39;98278.16;;;7.47;80.84
12759;BME280;20944;47.048;15.390;2024-02-14T09:22:07;98275.44;;;7.67;79.43
12759;BME280;20944;47.048;15.390;2024-02-14T09:24:36;98278.88;;;7.75;76.25
12759;BME280;20944;47.048;15.390;2024-02-14T09:27:04;98284.03;;;7.82;75.15
12759;BME280;20944;47.048;15.390;2024-02-14T09:29:33;98251.88;;;7.79;73.41
12759;BME280;20944;47.048;15.390;2024-02-14T09:32:04;98279.50;;;8.12;73.19
12759;BME280;20944;47.048;15.390;2024-02-14T09:34:33;98276.72;;;8.33;72.23
12759;BME280;20944;47.048;15.390;2024-02-14T09:37:03;98285.38;;;8.40;70.68
12759;BME280;20944;47.048;15.390;2024-02-14T09:39:33;98253.28;;;8.26;71.04
12759;BME280;20944;47.048;15.390;2024-02-14T09:42:08;98281.00;;;8.45;71.90
12759;BME280;20944;47.048;15.390;2024-02-14T09:44:37;98264.44;;;8.46;71.07
12759;BME280;20944;47.048;15.390;2024-02-14T09:47:07;98273.78;;;8.70;70.05
12759;BME280;20944;47.048;15.390;2024-02-14T09:49:38;98274.47;;;8.89;69.39
12759;BME280;20944;47.048;15.390;2024-02-14T09:52:11;98279.63;;;8.95;70.68
12759;BME280;20944;47.048;15.390;2024-02-14T09:54:40;98277.78;;;9.05;69.39
12759;BME280;20944;47.048;15.390;2024-02-14T09:57:09;98274.19;;;9.13;69.30
12759;BME280;20944;47.048;15.390;2024-02-14T09:59:39;98264.56;;;9.18;69.46
12759;BME280;20944;47.048;15.390;2024-02-14T10:02:08;98276.53;;;9.36;68.23
12759;BME280;20944;47.048;15.390;2024-02-14T10:04:37;98261.75;;;9.34;67.68
12759;BME280;20944;47.048;15.390;2024-02-14T10:07:06;98269.31;;;9.54;66.89
12759;BME280;20944;47.048;15.390;2024-02-14T10:09:42;98261.47;;;9.57;62.64
12759;BME280;20944;47.048;15.390;2024-02-14T10:12:11;98259.75;;;9.53;62.19
12759;BME280;20944;47.048;15.390;2024-02-14T10:14:39;98264.97;;;9.54;63.47
12759;BME280;20944;47.048;15.390;2024-02-14T10:17:17;98238.97;;;9.43;62.96
12759;BME280;20944;47.048;15.390;2024-02-14T10:19:55;98261.31;;;9.66;62.56
12759;BME280;20944;47.048;15.390;2024-02-14T10:22:24;98239.56;;;9.61;61.92
12759;BME280;20944;47.048;15.390;2024-02-14T10:24:54;98252.34;;;9.84;61.71
12759;BME280;20944;47.048;15.390;2024-02-14T10:27:25;98253.09;;;9.93;62.50
12759;BME280;20944;47.048;15.390;2024-02-14T10:29:56;98176.88;;;9.55;60.69
12759;BME280;20944;47.048;15.390;2024-02-14T10:32:24;98249.44;;;10.02;60.06
12759;BME280;20944;47.048;15.390;2024-02-14T10:34:52;98245.94;;;10.03;59.94
12759;BME280;20944;47.048;15.390;2024-02-14T10:37:24;98247.53;;;10.12;59.20
12759;BME280;20944;47.048;15.390;2024-02-14T10:39:56;98226.47;;;10.19;58.39
12759;BME280;20944;47.048;15.390;2024-02-14T10:42:24;98228.13;;;10.26;58.83
12759;BME280;20944;47.048;15.390;2024-02-14T10:44:54;98215.13;;;10.20;59.87
12759;BME280;20944;47.048;15.390;2024-02-14T10:47:27;98204.66;;;10.19;58.97
12759;BME280;20944;47.048;15.390;2024-02-14T10:50:00;98216.84;;;10.21;58.30
12759;BME280;20944;47.048;15.390;2024-02-14T10:52:31;98223.78;;;10.25;58.66
12759;BME280;20944;47.048;15.390;2024-02-14T10:55:04;98213.19;;;10.33;59.10
12759;BME280;20944;47.048;15.390;2024-02-14T10:57:33;98103.22;;;9.79;59.59
12759;BME280;20944;47.048;15.390;2024-02-14T11:00:04;98220.66;;;10.54;58.17
12759;BME280;20944;47.048;15.390;2024-02-14T11:02:35;98219.72;;;10.59;58.00
12759;BME280;20944;47.048;15.390;2024-02-14T11:05:04;98195.19;;;10.61;55.33
12759;BME280;20944;47.048;15.390;2024-02-14T11:07:33;98188.19;;;10.63;55.07
12759;BME280;20944;47.048;15.390;2024-02-14T11:10:06;98188.78;;;10.77;56.53
12759;BME280;20944;47.048;15.390;2024-02-14T11:12:36;98199.84;;;10.92;53.45
12759;BME280;20944;47.048;15.390;2024-02-14T11:15:10;98111.66;;;10.46;53.38
12759;BME280;20944;47.048;15.390;2024-02-14T11:17:39;98191.94;;;10.93;53.35
12759;BME280;20944;47.048;15.390;2024-02-14T11:20:16;98195.47;;;10.94;53.76
12759;BME280;20944;47.048;15.390;2024-02-14T11:22:53;98179.56;;;11.01;54.09
12759;BME280;20944;47.048;15.390;2024-02-14T11:25:31;98174.19;;;11.06;54.35
12759;BME280;20944;47.048;15.390;2024-02-14T11:28:12;98157.03;;;10.91;52.53
12759;BME280;20944;47.048;15.390;2024-02-14T11:30:42;98112.78;;;10.76;52.59
12759;BME280;20944;47.048;15.390;2024-02-14T11:33:15;98185.19;;;11.23;52.89
12759;BME280;20944;47.048;15.390;2024-02-14T11:35:46;98184.06;;;11.35;54.28
12759;BME280;20944;47.048;15.390;2024-02-14T11:38:16;98100.88;;;11.01;52.70
12759;BME280;20944;47.048;15.390;2024-02-14T11:40:46;98183.75;;;11.49;52.34
12759;BME280;20944;47.048;15.390;2024-02-14T11:43:16;98177.59;;;11.51;51.16
12759;BME280;20944;47.048;15.390;2024-02-14T11:45:44;98140.28;;;11.37;51.57
12759;BME280;20944;47.048;15.390;2024-02-14T11:48:16;98169.72;;;11.51;51.46
12759;BME280;20944;47.048;15.390;2024-02-14T11:50:45;98179.28;;;11.54;51.40
12759;BME280;20944;47.048;15.390;2024-02-14T11:53:15;98169.53;;;11.59;50.31
12759;BME280;20944;47.048;15.390;2024-02-14T11:55:47;98165.84;;;11.68;50.90
12759;BME280;20944;47.048;15.390;2024-02-14T11:58:16;98175.16;;;11.82;49.70
12759;BME280;20944;47.048;15.390;2024-02-14T12:00:47;98144.34;;;11.89;49.99
12759;BME280;20944;47.048;15.390;2024-02-14T12:03:17;98173.50;;;12.14;48.60
12759;BME280;20944;47.048;15.390;2024-02-14T12:05:47;98161.09;;;12.19;46.91
12759;BME280;20944;47.048;15.390;2024-02-14T12:08:18;98166.34;;;12.19;47.10
12759;BME280;20944;47.048;15.390;2024-02-14T12:10:48;98162.84;;;12.20;46.35
12759;BME280;20944;47.048;15.390;2024-02-14T12:13:19;98146.38;;;12.13;44.38
12759;BME280;20944;47.048;15.390;2024-02-14T12:15:49;98156.59;;;12.24;45.98
12759;BME280;20944;47.048;15.390;2024-02-14T12:18:20;98152.03;;;12.31;43.82
12759;BME280;20944;47.048;15.390;2024-02-14T12:20:49;98127.66;;;12.26;44.92
12759;BME280;20944;47.048;15.390;2024-02-14T12:23:22;98153.31;;;12.49;45.83
12759;BME280;20944;47.048;15.390;2024-02-14T12:26:01;98133.63;;;12.32;45.47
12759;BME280;20944;47.048;15.390;2024-02-14T12:28:30;98153.44;;;12.44;44.75
12759;BME280;20944;47.048;15.390;2024-02-14T12:30:59;98150.25;;;12.33;42.78
12759;BME280;20944;47.048;15.390;2024-02-14T12:33:27;98151.09;;;12.33;45.08
12759;BME280;20944;47.048;15.390;2024-02-14T12:35:57;98140.44;;;12.38;45.72
12759;BME280;20944;47.048;15.390;2024-02-14T12:38:26;98136.00;;;12.41;45.68
12759;BME280;20944;47.048;15.390;2024-02-14T12:40:55;98144.22;;;12.60;42.19
12759;BME280;20944;47.048;15.390;2024-02-14T12:43:24;98129.66;;;12.49;41.34
12759;BME280;20944;47.048;15.390;2024-02-14T12:45:52;98140.97;;;12.52;39.80
12759;BME280;20944;47.048;15.390;2024-02-14T12:48:23;98102.09;;;12.32;40.98
12759;BME280;20944;47.048;15.390;2024-02-14T12:50:54;98130.78;;;12.71;40.92
12759;BME280;20944;47.048;15.390;2024-02-14T12:53:23;98131.88;;;12.93;41.39
12759;BME280;20944;47.048;15.390;2024-02-14T12:55:51;98131.34;;;13.12;41.93
12759;BME280;20944;47.048;15.390;2024-02-14T12:58:21;98125.03;;;13.17;40.28
12759;BME280;20944;47.048;15.390;2024-02-14T13:00:49;98125.97;;;13.16;39.95
12759;BME280;20944;47.048;15.390;2024-02-14T13:03:18;98123.06;;;13.26;38.97